createdAt,value
2022-12-26T00:01:26.320Z,0.20
2022-12-26T00:03:53.942Z,0.00
2022-12-26T00:06:25.344Z,0.00
2022-12-26T00:08:53.024Z,0.00
2022-12-26T00:11:21.579Z,0.35
2022-12-26T00:13:53.108Z,0.00
2022-12-26T00:16:21.750Z,0.30
2022-12-26T00:18:49.768Z,0.10
2022-12-26T00:21:18.483Z,0.10
2022-12-26T00:23:46.932Z,0.00
2022-12-26T00:26:20.804Z,0.00
2022-12-26T00:28:48.473Z,0.10
2022-12-26T00:31:23.777Z,0.00
2022-12-26T00:33:51.079Z,0.10
2022-12-26T00:36:22.928Z,0.52
2022-12-26T00:38:51.019Z,0.00
2022-12-26T00:41:20.688Z,0.00
2022-12-26T00:43:48.654Z,0.00
2022-12-26T00:46:16.650Z,0.00
2022-12-26T00:48:44.142Z,0.00
2022-12-26T00:51:11.458Z,0.00
2022-12-26T00:53:39.023Z,0.10
2022-12-26T00:56:06.643Z,0.10
2022-12-26T00:58:33.888Z,0.05
2022-12-26T01:01:20.242Z,0.00
2022-12-26T01:03:48.603Z,0.10
2022-12-26T01:06:16.357Z,0.10
2022-12-26T01:08:43.555Z,0.10
2022-12-26T01:11:13.927Z,0.00
2022-12-26T01:13:41.788Z,0.00
2022-12-26T01:16:09.380Z,0.03
2022-12-26T01:18:36.835Z,0.10
2022-12-26T01:21:08.640Z,0.10
2022-12-26T01:23:35.688Z,0.10
2022-12-26T01:26:17.290Z,0.00
2022-12-26T01:28:50.068Z,0.00
2022-12-26T01:31:18.194Z,0.10
2022-12-26T01:33:45.462Z,0.00
2022-12-26T01:36:12.551Z,0.00
2022-12-26T01:38:39.638Z,0.00
2022-12-26T01:41:22.309Z,0.00
2022-12-26T01:44:00.519Z,0.20
2022-12-26T01:46:45.124Z,0.00
2022-12-26T01:49:31.415Z,0.00
2022-12-26T01:52:04.561Z,0.65
2022-12-26T01:54:42.718Z,0.22
2022-12-26T01:57:20.413Z,0.10
2022-12-26T01:59:48.437Z,0.30
2022-12-26T02:02:17.215Z,0.10
2022-12-26T02:05:07.999Z,0.08
2022-12-26T02:07:39.473Z,0.00
2022-12-26T02:10:18.237Z,0.00
2022-12-26T02:12:46.039Z,0.00
2022-12-26T02:15:17.127Z,0.00
2022-12-26T02:17:44.372Z,0.00
2022-12-26T02:20:24.401Z,0.00
2022-12-26T02:23:12.458Z,0.30
2022-12-26T02:25:51.500Z,0.45
2022-12-26T02:28:54.802Z,0.00
2022-12-26T02:31:42.185Z,0.10
2022-12-26T02:34:53.644Z,0.00
2022-12-26T02:37:53.145Z,0.17
2022-12-26T02:40:53.074Z,0.10
2022-12-26T02:44:23.148Z,0.10
2022-12-26T02:47:19.294Z,0.00
2022-12-26T02:50:31.945Z,0.10
2022-12-26T02:53:46.374Z,0.00
2022-12-26T02:56:45.484Z,0.00
2022-12-26T02:59:57.005Z,0.00
2022-12-26T03:03:00.498Z,0.05
2022-12-26T03:05:54.392Z,0.00
2022-12-26T03:08:56.467Z,0.00
2022-12-26T03:11:47.516Z,0.10
2022-12-26T03:14:24.732Z,0.00
2022-12-26T03:17:21.862Z,0.00
2022-12-26T03:20:00.003Z,0.10
2022-12-26T03:23:08.451Z,0.00
2022-12-26T03:26:16.876Z,0.00
2022-12-26T03:28:50.943Z,0.00
2022-12-26T03:31:18.167Z,0.00
2022-12-26T03:34:05.722Z,0.30
2022-12-26T03:36:51.046Z,0.10
2022-12-26T03:39:55.060Z,0.00
2022-12-26T03:43:11.846Z,0.08
2022-12-26T03:46:47.406Z,0.00
2022-12-26T03:49:48.311Z,0.30
2022-12-26T03:53:04.584Z,0.00
2022-12-26T03:56:34.992Z,0.00
2022-12-26T03:59:28.804Z,0.00
2022-12-26T04:02:19.252Z,0.15
2022-12-26T04:05:05.478Z,0.00
2022-12-26T04:08:02.634Z,0.03
2022-12-26T04:11:01.685Z,0.00
2022-12-26T04:14:08.060Z,0.03
2022-12-26T04:17:02.235Z,0.00
2022-12-26T04:20:27.014Z,0.00
2022-12-26T04:23:42.644Z,0.00
2022-12-26T04:26:36.676Z,0.00
2022-12-26T04:29:22.946Z,0.10
2022-12-26T04:32:23.972Z,0.10
2022-12-26T04:35:33.021Z,0.00
2022-12-26T04:38:19.382Z,0.00
2022-12-26T04:41:10.689Z,0.10
2022-12-26T04:43:57.767Z,0.10
2022-12-26T04:46:26.704Z,0.00
2022-12-26T04:49:13.668Z,0.00
2022-12-26T04:51:40.646Z,0.10
2022-12-26T04:54:08.447Z,0.00
2022-12-26T04:56:35.786Z,0.00
2022-12-26T04:59:03.164Z,0.10
2022-12-26T05:01:48.842Z,0.10
2022-12-26T05:04:36.862Z,0.10
2022-12-26T05:07:31.447Z,0.08
2022-12-26T05:09:58.442Z,0.10
2022-12-26T05:12:25.397Z,0.10
2022-12-26T05:14:52.347Z,0.05
2022-12-26T05:17:37.768Z,0.00
2022-12-26T05:20:24.384Z,0.10
2022-12-26T05:23:11.528Z,0.10
2022-12-26T05:26:01.089Z,0.00
2022-12-26T05:28:43.625Z,0.10
2022-12-26T05:31:17.461Z,0.00
2022-12-26T05:34:03.481Z,0.20
2022-12-26T05:36:50.574Z,0.00
2022-12-26T05:39:18.033Z,0.00
2022-12-26T05:41:45.217Z,0.00
2022-12-26T05:44:12.484Z,0.00
2022-12-26T05:46:39.668Z,0.00
2022-12-26T05:49:06.965Z,0.10
2022-12-26T05:51:34.242Z,0.10
2022-12-26T05:54:02.080Z,0.00
2022-12-26T05:56:29.536Z,0.00
2022-12-26T05:59:01.068Z,0.00
2022-12-26T06:01:29.507Z,0.10
2022-12-26T06:03:59.635Z,0.00
2022-12-26T06:06:28.104Z,0.08
2022-12-26T06:08:56.506Z,0.00
2022-12-26T06:11:26.525Z,0.00
2022-12-26T06:13:54.634Z,0.10
2022-12-26T06:16:21.874Z,0.40
2022-12-26T06:18:49.800Z,0.10
2022-12-26T06:21:19.998Z,0.10
2022-12-26T06:23:47.564Z,0.00
2022-12-26T06:26:15.193Z,0.10
2022-12-26T06:28:43.447Z,0.10
2022-12-26T06:31:16.166Z,0.00
2022-12-26T06:33:43.376Z,0.10
2022-12-26T06:36:16.965Z,0.00
2022-12-26T06:38:44.184Z,0.00
2022-12-26T06:41:16.138Z,0.00
2022-12-26T06:43:43.689Z,0.00
2022-12-26T06:46:15.720Z,0.30
2022-12-26T06:48:43.195Z,0.00
2022-12-26T06:51:14.273Z,0.00
2022-12-26T06:53:41.859Z,0.10
2022-12-26T06:56:15.527Z,0.00
2022-12-26T06:58:43.469Z,0.00
2022-12-26T07:01:17.137Z,0.00
2022-12-26T07:03:51.160Z,0.00
2022-12-26T07:06:29.448Z,0.00
2022-12-26T07:09:24.095Z,0.00
2022-12-26T07:11:52.892Z,0.00
2022-12-26T07:14:19.845Z,0.10
2022-12-26T07:16:46.933Z,0.00
2022-12-26T07:19:15.796Z,0.00
2022-12-26T07:21:43.549Z,0.00
2022-12-26T07:24:23.279Z,0.00
2022-12-26T07:26:50.623Z,0.00
2022-12-26T07:29:18.142Z,0.00
2022-12-26T07:31:45.269Z,0.00
2022-12-26T07:34:12.382Z,0.00
2022-12-26T07:36:40.761Z,0.10
2022-12-26T07:39:07.869Z,0.00
2022-12-26T07:41:53.526Z,0.10
2022-12-26T07:44:20.604Z,0.20
2022-12-26T07:46:47.596Z,0.10
2022-12-26T07:49:14.976Z,0.00
2022-12-26T07:51:42.901Z,0.00
2022-12-26T07:54:11.642Z,0.00
2022-12-26T07:56:40.410Z,0.00
2022-12-26T07:59:08.319Z,0.00
2022-12-26T08:01:35.460Z,0.00
2022-12-26T08:04:02.641Z,0.00
2022-12-26T08:06:29.682Z,0.00
2022-12-26T08:08:56.708Z,0.00
2022-12-26T08:11:25.135Z,0.10
2022-12-26T08:13:52.785Z,0.00
2022-12-26T08:16:20.797Z,0.00
2022-12-26T08:18:48.164Z,0.00
2022-12-26T08:21:15.694Z,0.00
2022-12-26T08:23:42.764Z,0.00
2022-12-26T08:26:13.699Z,0.00
2022-12-26T08:28:43.149Z,0.00
2022-12-26T08:31:21.025Z,0.10
2022-12-26T08:33:48.536Z,0.30
2022-12-26T08:36:18.329Z,0.20
2022-12-26T08:38:45.643Z,0.50
2022-12-26T08:41:13.090Z,0.17
2022-12-26T08:46:27.302Z,0.20
2022-12-26T08:48:54.571Z,0.00
2022-12-26T08:51:24.819Z,0.20
2022-12-26T08:53:54.679Z,0.20
2022-12-26T08:56:25.328Z,0.30
2022-12-26T08:58:53.022Z,0.30
2022-12-26T09:01:28.949Z,0.28
2022-12-26T09:04:02.232Z,0.20
2022-12-26T09:06:32.558Z,0.10
2022-12-26T09:09:00.686Z,0.30
2022-12-26T09:11:28.880Z,0.20
2022-12-26T09:13:58.711Z,0.10
2022-12-26T09:16:37.516Z,0.10
2022-12-26T09:19:06.483Z,0.10
2022-12-26T09:21:33.898Z,0.00
2022-12-26T09:24:04.665Z,0.10
2022-12-26T09:26:32.600Z,0.20
2022-12-26T09:29:00.476Z,0.10
2022-12-26T09:31:30.783Z,0.10
2022-12-26T09:33:58.333Z,0.13
2022-12-26T09:36:32.805Z,0.10
2022-12-26T09:39:00.473Z,0.00
2022-12-26T09:42:08.577Z,0.00
2022-12-26T09:44:53.494Z,0.00
2022-12-26T09:47:33.702Z,0.00
2022-12-26T09:50:09.650Z,0.10
2022-12-26T09:52:56.232Z,0.10
2022-12-26T09:55:51.704Z,0.10
2022-12-26T09:58:29.985Z,0.00
2022-12-26T10:01:16.452Z,0.10
2022-12-26T10:03:52.680Z,0.10
2022-12-26T10:06:47.549Z,0.10
2022-12-26T10:10:02.354Z,0.00
2022-12-26T10:13:00.956Z,0.00
2022-12-26T10:15:59.931Z,0.10
2022-12-26T10:18:54.506Z,0.10
2022-12-26T10:21:38.391Z,0.10
2022-12-26T10:24:18.498Z,0.00
2022-12-26T10:26:57.753Z,0.00
2022-12-26T10:29:38.085Z,0.10
2022-12-26T10:32:27.636Z,0.10
2022-12-26T10:34:55.419Z,0.00
2022-12-26T10:37:42.162Z,0.10
2022-12-26T10:40:33.797Z,0.00
2022-12-26T10:43:22.909Z,0.15
2022-12-26T10:46:01.412Z,0.00
2022-12-26T10:48:29.622Z,0.20
2022-12-26T10:50:56.776Z,0.10
2022-12-26T10:53:24.035Z,0.10
2022-12-26T10:55:51.173Z,0.03
2022-12-26T10:58:37.076Z,0.00
2022-12-26T11:01:28.392Z,0.10
2022-12-26T11:04:02.434Z,0.10
2022-12-26T11:06:38.516Z,0.08
2022-12-26T11:09:06.884Z,0.10
2022-12-26T11:11:48.654Z,0.10
2022-12-26T11:14:36.130Z,0.10
2022-12-26T11:17:30.507Z,0.55
2022-12-26T11:20:26.077Z,0.10
2022-12-26T11:22:53.972Z,0.10
2022-12-26T11:25:27.813Z,0.10
2022-12-26T11:27:59.383Z,0.10
2022-12-26T11:30:33.783Z,0.10
2022-12-26T11:33:35.279Z,0.43
2022-12-26T11:36:16.407Z,0.10
2022-12-26T11:38:49.906Z,0.10
2022-12-26T11:41:31.704Z,0.10
2022-12-26T11:44:27.173Z,0.10
2022-12-26T11:46:56.881Z,0.17
2022-12-26T11:49:49.676Z,0.20
2022-12-26T11:52:38.159Z,0.20
2022-12-26T11:55:34.066Z,0.20
2022-12-26T11:58:06.892Z,0.20
2022-12-26T12:00:39.860Z,0.20
2022-12-26T12:03:58.272Z,0.15
2022-12-26T12:06:43.535Z,0.40
2022-12-26T12:09:21.367Z,0.20
2022-12-26T12:11:57.811Z,0.32
2022-12-26T12:14:58.172Z,0.50
2022-12-26T12:17:45.462Z,0.30
2022-12-26T12:20:36.658Z,0.17
2022-12-26T12:23:49.495Z,0.20
2022-12-26T12:26:42.869Z,0.20
2022-12-26T12:30:09.264Z,0.30
2022-12-26T12:32:56.913Z,0.30
2022-12-26T12:36:13.076Z,0.15
2022-12-26T12:39:11.664Z,0.30
2022-12-26T12:42:05.929Z,0.10
2022-12-26T12:45:00.059Z,0.20
2022-12-26T12:47:59.791Z,0.35
2022-12-26T12:51:00.790Z,0.40
2022-12-26T12:53:37.328Z,0.10
2022-12-26T12:57:01.649Z,0.10
2022-12-26T12:59:40.467Z,0.10
2022-12-26T13:02:26.101Z,0.20
2022-12-26T13:05:12.860Z,0.40
2022-12-26T13:07:47.397Z,0.20
2022-12-26T13:10:26.311Z,0.20
2022-12-26T13:12:54.519Z,0.47
2022-12-26T13:15:53.531Z,0.28
2022-12-26T13:18:30.198Z,0.40
2022-12-26T13:21:07.566Z,0.40
2022-12-26T13:24:06.887Z,0.65
2022-12-26T13:26:43.147Z,0.82
2022-12-26T13:29:17.726Z,0.20
2022-12-26T13:31:45.776Z,0.10
2022-12-26T13:34:19.390Z,0.30
2022-12-26T13:36:55.986Z,0.22
2022-12-26T13:39:33.279Z,0.25
2022-12-26T13:42:29.612Z,0.20
2022-12-26T13:45:35.498Z,0.40
2022-12-26T13:48:15.289Z,0.45
2022-12-26T13:50:56.333Z,0.20
2022-12-26T13:53:26.685Z,0.47
2022-12-26T13:56:02.473Z,0.40
2022-12-26T13:58:35.671Z,0.90
2022-12-26T14:01:31.770Z,0.65
2022-12-26T14:04:43.888Z,0.63
2022-12-26T14:08:06.676Z,0.10
2022-12-26T14:10:53.962Z,0.47
2022-12-26T14:14:08.303Z,0.70
2022-12-26T14:17:17.267Z,0.40
2022-12-26T14:20:05.826Z,0.50
2022-12-26T14:23:10.116Z,0.50
2022-12-26T14:26:15.245Z,0.57
2022-12-26T14:29:12.096Z,1.02
2022-12-26T14:31:57.912Z,0.20
2022-12-26T14:34:51.899Z,0.60
2022-12-26T14:37:44.405Z,0.47
2022-12-26T14:40:35.701Z,0.70
2022-12-26T14:43:17.092Z,0.50
2022-12-26T14:45:51.034Z,0.50
2022-12-26T14:48:18.148Z,0.50
2022-12-26T14:50:52.101Z,0.20
2022-12-26T14:53:34.951Z,0.40
2022-12-26T14:56:08.012Z,0.60
2022-12-26T14:58:39.413Z,0.50
2022-12-26T15:01:09.414Z,1.08
2022-12-26T15:03:59.689Z,0.65
2022-12-26T15:06:53.742Z,1.00
2022-12-26T15:10:05.079Z,0.50
2022-12-26T15:13:23.052Z,0.60
2022-12-26T15:16:38.343Z,0.50
2022-12-26T15:19:38.944Z,1.00
2022-12-26T15:22:55.577Z,0.60
2022-12-26T15:26:08.913Z,0.50
2022-12-26T15:29:24.343Z,1.10
2022-12-26T15:32:11.889Z,0.60
2022-12-26T15:35:26.761Z,0.50
2022-12-26T15:38:11.288Z,0.63
2022-12-26T15:41:21.780Z,0.57
2022-12-26T15:44:30.847Z,0.60
2022-12-26T15:47:30.676Z,0.60
2022-12-26T15:50:42.207Z,0.60
2022-12-26T15:53:50.663Z,0.63
2022-12-26T15:56:41.900Z,0.60
2022-12-26T15:59:45.973Z,0.63
2022-12-26T16:02:30.735Z,1.10
2022-12-26T16:05:33.112Z,0.70
2022-12-26T16:08:14.832Z,0.85
2022-12-26T16:10:42.491Z,0.77
2022-12-26T16:13:12.973Z,0.68
2022-12-26T16:15:51.400Z,0.60
2022-12-26T16:18:29.548Z,1.02
2022-12-26T16:21:21.926Z,0.80
2022-12-26T16:23:51.640Z,0.90
2022-12-26T16:26:29.809Z,0.50
2022-12-26T16:29:07.187Z,1.48
2022-12-26T16:31:34.429Z,2.85
2022-12-26T16:34:01.962Z,2.30
2022-12-26T16:36:32.938Z,2.75
2022-12-26T16:39:00.388Z,2.15
2022-12-26T16:41:33.394Z,0.90
2022-12-26T16:44:34.982Z,1.77
2022-12-26T16:47:11.220Z,1.77
2022-12-26T16:49:54.012Z,1.65
2022-12-26T16:52:46.273Z,0.68
2022-12-26T16:55:39.871Z,1.50
2022-12-26T16:58:28.258Z,3.00
2022-12-26T17:01:13.781Z,2.58
2022-12-26T17:03:53.232Z,1.50
2022-12-26T17:06:38.600Z,0.80
2022-12-26T17:09:17.005Z,1.88
2022-12-26T17:12:09.516Z,1.88
2022-12-26T17:14:43.155Z,1.90
2022-12-26T17:17:22.405Z,1.00
2022-12-26T17:19:55.386Z,0.93
2022-12-26T17:22:32.585Z,1.08
2022-12-26T17:25:34.299Z,2.05
2022-12-26T17:28:11.030Z,1.33
2022-12-26T17:30:47.116Z,1.30
2022-12-26T17:33:28.107Z,1.10
2022-12-26T17:38:52.380Z,1.50
2022-12-26T17:41:20.363Z,0.98
2022-12-26T17:43:48.334Z,1.30
2022-12-26T17:46:18.104Z,1.60
2022-12-26T17:48:45.802Z,1.85
2022-12-26T17:51:17.588Z,1.30
2022-12-26T17:53:52.050Z,0.60
2022-12-26T17:56:25.669Z,1.35
2022-12-26T17:58:54.336Z,1.02
2022-12-26T18:01:22.438Z,1.05
2022-12-26T18:03:53.078Z,1.10
2022-12-26T18:06:22.075Z,0.95
2022-12-26T18:08:49.346Z,2.35
2022-12-26T18:11:16.843Z,1.30
2022-12-26T18:13:44.589Z,0.63
2022-12-26T18:16:18.126Z,1.25
2022-12-26T18:18:47.066Z,1.50
2022-12-26T18:21:16.230Z,1.05
2022-12-26T18:23:44.414Z,1.20
2022-12-26T18:26:37.787Z,0.82
2022-12-26T18:29:05.069Z,1.92
2022-12-26T18:31:32.277Z,1.55
2022-12-26T18:33:59.503Z,0.65
2022-12-26T18:36:34.255Z,1.23
2022-12-26T18:39:01.269Z,1.35
2022-12-26T18:41:28.307Z,0.80
2022-12-26T18:43:55.513Z,0.90
2022-12-26T18:46:27.887Z,0.55
2022-12-26T18:48:56.849Z,1.27
2022-12-26T18:51:25.841Z,1.17
2022-12-26T18:53:52.893Z,1.77
2022-12-26T18:56:23.173Z,1.27
2022-12-26T18:58:57.444Z,2.13
2022-12-26T19:01:26.037Z,1.70
2022-12-26T19:03:54.100Z,1.67
2022-12-26T19:06:25.510Z,2.33
2022-12-26T19:08:52.719Z,2.58
2022-12-26T19:11:20.504Z,0.80
2022-12-26T19:13:47.925Z,1.85
2022-12-26T19:16:16.105Z,1.60
2022-12-26T19:18:43.614Z,1.90
2022-12-26T19:21:15.473Z,1.92
2022-12-26T19:23:46.824Z,0.90
2022-12-26T19:26:17.487Z,1.70
2022-12-26T19:28:44.939Z,1.77
2022-12-26T19:31:15.043Z,4.00
2022-12-26T19:33:42.427Z,1.23
2022-12-26T19:36:10.578Z,1.90
2022-12-26T19:38:38.545Z,3.25
2022-12-26T19:41:13.110Z,2.08
2022-12-26T19:43:41.017Z,1.83
2022-12-26T19:46:12.352Z,1.85
2022-12-26T19:48:39.751Z,2.92
2022-12-26T19:51:10.840Z,1.80
2022-12-26T19:53:39.220Z,4.57
2022-12-26T19:56:15.182Z,2.35
2022-12-26T19:58:42.919Z,3.45
2022-12-26T20:01:14.411Z,1.33
2022-12-26T20:03:42.100Z,1.60
2022-12-26T20:06:22.704Z,2.97
2022-12-26T20:08:51.270Z,1.85
2022-12-26T20:11:26.306Z,1.75
2022-12-26T20:13:53.591Z,1.33
2022-12-26T20:17:03.188Z,1.20
2022-12-26T20:19:12.993Z,1.23
2022-12-26T20:21:40.073Z,1.10
2022-12-26T20:24:07.472Z,2.13
2022-12-26T20:26:34.588Z,2.08
2022-12-26T20:29:02.245Z,1.27
2022-12-26T20:31:31.628Z,1.08
2022-12-26T20:33:59.502Z,2.55
2022-12-26T20:36:30.506Z,2.30
2022-12-26T20:39:02.093Z,2.20
2022-12-26T20:41:29.783Z,1.17
2022-12-26T20:43:57.387Z,2.08
2022-12-26T20:46:33.015Z,1.67
2022-12-26T20:49:02.341Z,1.70
2022-12-26T20:51:37.498Z,1.60
2022-12-26T20:54:07.719Z,1.60
2022-12-26T20:56:36.683Z,1.58
2022-12-26T20:59:05.988Z,3.10
2022-12-26T21:01:34.333Z,2.38
2022-12-26T21:04:06.076Z,1.65
2022-12-26T21:06:37.489Z,2.33
2022-12-26T21:09:06.872Z,4.38
2022-12-26T21:11:38.502Z,1.60
2022-12-26T21:14:14.117Z,4.55
2022-12-26T21:16:47.698Z,2.35
2022-12-26T21:19:16.004Z,2.40
2022-12-26T21:21:47.056Z,2.40
2022-12-26T21:24:26.464Z,2.40
2022-12-26T21:26:54.462Z,1.42
2022-12-26T21:29:34.472Z,1.50
2022-12-26T21:32:03.685Z,3.10
2022-12-26T21:34:33.398Z,2.33
2022-12-26T21:37:19.456Z,2.50
2022-12-26T21:39:47.345Z,2.42
2022-12-26T21:42:14.634Z,2.92
2022-12-26T21:44:41.844Z,2.47
2022-12-26T21:47:09.184Z,2.72
2022-12-26T21:49:37.447Z,2.50
2022-12-26T21:52:06.757Z,3.67
2022-12-26T21:54:53.233Z,2.13
2022-12-26T21:57:21.524Z,2.53
2022-12-26T21:59:57.986Z,1.77
2022-12-26T22:02:55.896Z,2.22
2022-12-26T22:05:30.346Z,1.75
2022-12-26T22:08:00.908Z,2.00
2022-12-26T22:10:51.220Z,2.50
2022-12-26T22:13:20.295Z,0.98
2022-12-26T22:16:03.426Z,1.65
2022-12-26T22:18:45.288Z,1.88
2022-12-26T22:21:23.177Z,2.72
2022-12-26T22:23:51.699Z,2.25
2022-12-26T22:26:21.595Z,2.17
2022-12-26T22:28:49.846Z,4.10
2022-12-26T22:31:24.591Z,3.83
2022-12-26T22:33:57.332Z,3.03
2022-12-26T22:36:24.856Z,2.80
2022-12-26T22:38:51.985Z,3.30
2022-12-26T22:41:19.284Z,2.90
2022-12-26T22:43:46.606Z,2.35
2022-12-26T22:46:14.414Z,2.67
2022-12-26T22:48:42.048Z,4.50
2022-12-26T22:51:16.147Z,2.88
2022-12-26T22:53:43.215Z,2.25
2022-12-26T22:56:11.862Z,2.03
2022-12-26T22:58:39.112Z,3.90
2022-12-26T23:01:19.088Z,3.47
2022-12-26T23:03:47.431Z,2.65
2022-12-26T23:06:25.573Z,2.28
2022-12-26T23:08:56.740Z,2.00
2022-12-26T23:11:34.011Z,2.28
2022-12-26T23:14:06.915Z,2.47
2022-12-26T23:16:51.256Z,2.85
2022-12-26T23:20:02.656Z,2.65
2022-12-26T23:22:30.141Z,3.28
2022-12-26T23:24:57.197Z,3.90
2022-12-26T23:27:42.921Z,2.33
2022-12-26T23:30:18.803Z,2.65
2022-12-26T23:32:52.349Z,3.35
2022-12-26T23:35:21.544Z,2.53
2022-12-26T23:37:48.913Z,3.35
2022-12-26T23:40:18.468Z,2.67
2022-12-26T23:42:45.793Z,2.58
2022-12-26T23:45:14.690Z,2.53
2022-12-26T23:47:44.267Z,2.55
2022-12-26T23:50:13.898Z,2.55
2022-12-26T23:52:42.132Z,2.95
2022-12-26T23:55:10.228Z,3.42
2022-12-26T23:57:37.497Z,2.83
